Muirhead, United Kingdom
Current Conditions -  °F | °C
As of 4:50 AM on Sunday 26 Oct 2014 (Local Time) from EGQL Reporting Station
Scattered Clouds Scattered Clouds  
Wind Chill: 54°   Ceiling: Unl
Heat Index: 54°   Visibility: 6mi
Dew Point: 45°   Wind: 33mph
Humidity: 72%   Direction: 250°WSW
Pressure: 29.59"   Gusts: 45mph
Location:  56.5°N, 3.07°W
Report Text: EGQL 260350Z 25029G39KT 9999 SCT030 12/07 Q1002 BLU
Loading
Personal Weather Stations






























Interactive Weather Map
Tropical Storm Tracking
New forecast layout! Learn more

10-Day Weather Forecast

Advertisements
Track Severe Weather on mobile